createdAt,value
2022-09-23T00:01:19.488Z,90.23
2022-09-23T00:03:47.366Z,89.92
2022-09-23T00:06:22.776Z,89.38
2022-09-23T00:08:50.682Z,90.32
2022-09-23T00:11:24.356Z,90.61
2022-09-23T00:13:55.248Z,91.35
2022-09-23T00:16:34.098Z,91.04
2022-09-23T00:19:02.908Z,91.29
2022-09-23T00:21:30.083Z,90.33
2022-09-23T00:23:57.182Z,89.92
2022-09-23T00:26:24.373Z,90.87
2022-09-23T00:28:51.913Z,91.31
2022-09-23T00:31:22.169Z,90.35
2022-09-23T00:33:54.292Z,91.66
2022-09-23T00:36:21.393Z,92.26
2022-09-23T00:38:48.450Z,92.52
2022-09-23T00:41:16.193Z,92.87
2022-09-23T00:43:55.575Z,93.08
2022-09-23T00:46:24.311Z,93.79
2022-09-23T00:48:57.667Z,93.57
2022-09-23T00:51:29.960Z,93.86
2022-09-23T00:53:57.115Z,93.85
2022-09-23T00:56:24.655Z,93.18
2022-09-23T00:58:52.618Z,92.69
2022-09-23T01:01:20.912Z,92.61
2022-09-23T01:03:49.284Z,92.32
2022-09-23T01:06:16.484Z,92.86
2022-09-23T01:08:46.031Z,93.32
2022-09-23T01:11:19.212Z,91.43
2022-09-23T01:14:20.311Z,91.64
2022-09-23T01:16:56.502Z,91.79
2022-09-23T01:19:45.159Z,90.77
2022-09-23T01:22:42.164Z,90.45
2022-09-23T01:25:47.272Z,89.72
2022-09-23T01:28:34.543Z,89.80
2022-09-23T01:31:26.177Z,88.53
2022-09-23T01:34:11.308Z,89.43
2022-09-23T01:36:41.359Z,89.57
2022-09-23T01:39:14.227Z,90.09
2022-09-23T01:42:13.607Z,90.03
2022-09-23T01:45:05.475Z,90.53
2022-09-23T01:47:38.090Z,91.04
2022-09-23T01:50:28.513Z,91.39
2022-09-23T01:53:01.901Z,91.35
2022-09-23T01:55:33.845Z,90.71
2022-09-23T01:58:19.149Z,90.90
2022-09-23T02:01:01.133Z,90.71
2022-09-23T02:03:38.694Z,90.18
2022-09-23T02:06:32.259Z,89.72
2022-09-23T02:09:10.280Z,89.03
2022-09-23T02:11:38.409Z,88.88
2022-09-23T02:14:11.569Z,89.84
2022-09-23T02:17:10.407Z,90.29
2022-09-23T02:19:53.769Z,89.83
2022-09-23T02:23:03.179Z,89.56
2022-09-23T02:25:38.104Z,89.11
2022-09-23T02:28:16.844Z,88.92
2022-09-23T02:30:56.016Z,88.85
2022-09-23T02:33:37.211Z,88.35
2022-09-23T02:36:20.221Z,87.13
2022-09-23T02:38:53.680Z,87.66
2022-09-23T02:41:56.963Z,86.76
2022-09-23T02:44:24.412Z,86.50
2022-09-23T02:46:53.291Z,85.54
2022-09-23T02:49:25.864Z,87.00
2022-09-23T02:51:54.625Z,86.47
2022-09-23T02:54:27.213Z,87.09
2022-09-23T02:56:55.315Z,86.63
2022-09-23T02:59:24.104Z,86.09
2022-09-23T03:02:13.609Z,85.65
2022-09-23T03:04:52.296Z,85.34
2022-09-23T03:07:40.896Z,85.66
2022-09-23T03:10:23.470Z,84.40
2022-09-23T03:13:07.290Z,85.09
2022-09-23T03:16:17.426Z,84.18
2022-09-23T03:19:03.046Z,84.76
2022-09-23T03:21:41.767Z,85.01
2022-09-23T03:24:10.910Z,85.01
2022-09-23T03:26:40.362Z,84.92
2022-09-23T03:29:11.495Z,85.84
2022-09-23T03:31:40.191Z,85.77
2022-09-23T03:34:14.602Z,85.29
2022-09-23T03:37:11.309Z,84.87
2022-09-23T03:39:44.625Z,83.54
2022-09-23T03:42:22.721Z,84.30
2022-09-23T03:44:54.190Z,83.79
2022-09-23T03:47:21.915Z,83.38
2022-09-23T03:49:50.168Z,83.00
2022-09-23T03:52:19.054Z,84.50
2022-09-23T03:54:46.554Z,84.30
2022-09-23T03:57:14.472Z,83.78
2022-09-23T03:59:41.639Z,84.13
2022-09-23T04:02:09.271Z,84.07
2022-09-23T04:04:37.574Z,83.42
2022-09-23T04:07:04.999Z,82.98
2022-09-23T04:09:32.413Z,82.98
2022-09-23T04:11:59.599Z,82.13
2022-09-23T04:14:27.061Z,82.27
2022-09-23T04:16:54.225Z,81.47
2022-09-23T04:19:21.398Z,80.61
2022-09-23T04:21:48.978Z,80.27
2022-09-23T04:24:16.920Z,80.34
2022-09-23T04:26:44.535Z,80.81
2022-09-23T04:29:12.068Z,80.51
2022-09-23T04:31:39.831Z,79.99
2022-09-23T04:34:07.083Z,79.73
2022-09-23T04:36:34.291Z,78.87
2022-09-23T04:39:02.098Z,79.21
2022-09-23T04:41:29.724Z,79.58
2022-09-23T04:43:57.700Z,79.64
2022-09-23T04:46:25.131Z,79.52
2022-09-23T04:48:52.362Z,79.23
2022-09-23T04:51:22.283Z,78.47
2022-09-23T04:53:51.612Z,79.05
2022-09-23T04:56:29.811Z,78.71
2022-09-23T04:58:58.296Z,77.95
2022-09-23T05:01:28.571Z,76.67
2022-09-23T05:04:00.119Z,76.11
2022-09-23T05:06:27.201Z,76.58
2022-09-23T05:08:56.112Z,76.17
2022-09-23T05:11:24.136Z,75.42
2022-09-23T05:13:53.554Z,75.90
2022-09-23T05:16:23.092Z,73.95
2022-09-23T05:18:51.275Z,74.14
2022-09-23T05:21:20.653Z,74.92
2022-09-23T05:23:50.118Z,74.49
2022-09-23T05:26:17.238Z,73.34
2022-09-23T05:28:44.496Z,73.50
2022-09-23T05:31:19.720Z,73.34
2022-09-23T05:34:01.765Z,72.97
2022-09-23T05:36:35.571Z,73.07
2022-09-23T05:39:04.975Z,74.77
2022-09-23T05:41:33.986Z,75.04
2022-09-23T05:44:01.479Z,76.03
2022-09-23T05:46:31.347Z,76.66
2022-09-23T05:49:03.015Z,78.08
2022-09-23T05:51:31.974Z,78.39
2022-09-23T05:54:00.264Z,80.11
2022-09-23T05:56:28.208Z,80.85
2022-09-23T05:58:57.757Z,80.96
2022-09-23T06:01:28.013Z,82.76
2022-09-23T06:03:57.005Z,81.17
2022-09-23T06:06:28.058Z,81.60
2022-09-23T06:08:59.410Z,79.90
2022-09-23T06:11:27.280Z,80.55
2022-09-23T06:13:56.010Z,80.79
2022-09-23T06:16:23.187Z,79.49
2022-09-23T06:18:50.337Z,78.89
2022-09-23T06:21:18.574Z,79.07
2022-09-23T06:23:46.578Z,77.57
2022-09-23T06:26:16.117Z,77.90
2022-09-23T06:28:44.736Z,77.84
2022-09-23T06:31:14.204Z,76.01
2022-09-23T06:33:45.717Z,75.32
2022-09-23T06:36:28.002Z,75.19
2022-09-23T06:39:02.386Z,75.14
2022-09-23T06:41:30.125Z,74.28
2022-09-23T06:43:58.695Z,75.26
2022-09-23T06:46:25.807Z,75.43
2022-09-23T06:48:52.909Z,74.22
2022-09-23T06:51:20.113Z,74.31
2022-09-23T06:53:50.786Z,73.17
2022-09-23T06:56:19.861Z,74.07
2022-09-23T06:58:47.267Z,74.18
2022-09-23T07:01:16.927Z,75.09
2022-09-23T07:03:45.798Z,74.96
2022-09-23T07:06:13.271Z,74.94
2022-09-23T07:08:44.902Z,73.32
2022-09-23T07:11:13.494Z,73.75
2022-09-23T07:13:42.344Z,73.88
2022-09-23T07:16:11.097Z,73.17
2022-09-23T07:18:38.561Z,72.37
2022-09-23T07:21:17.617Z,71.42
2022-09-23T07:23:50.204Z,71.85
2022-09-23T07:26:19.022Z,72.13
2022-09-23T07:28:46.348Z,70.37
2022-09-23T07:31:27.538Z,71.67
2022-09-23T07:34:01.173Z,73.35
2022-09-23T07:36:32.850Z,74.01
2022-09-23T07:39:03.982Z,73.76
2022-09-23T07:41:33.101Z,71.99
2022-09-23T07:44:01.264Z,71.89
2022-09-23T07:46:34.417Z,72.22
2022-09-23T07:49:05.276Z,73.57
2022-09-23T07:51:38.345Z,74.69
2022-09-23T07:54:08.858Z,74.55
2022-09-23T07:56:37.386Z,74.53
2022-09-23T07:59:08.701Z,74.81
2022-09-23T08:01:41.677Z,74.17
2022-09-23T08:04:14.128Z,74.05
2022-09-23T08:06:46.001Z,73.34
2022-09-23T08:09:13.520Z,73.48
2022-09-23T08:11:42.259Z,73.94
2022-09-23T08:14:12.738Z,73.04
2022-09-23T08:16:44.845Z,73.28
2022-09-23T08:19:12.718Z,73.79
2022-09-23T08:21:41.876Z,73.95
2022-09-23T08:24:16.867Z,73.69
2022-09-23T08:26:45.420Z,74.11
2022-09-23T08:29:14.340Z,74.15
2022-09-23T08:31:41.691Z,73.70
2022-09-23T08:34:09.025Z,73.11
2022-09-23T08:36:36.342Z,73.93
2022-09-23T08:39:03.976Z,73.52
2022-09-23T08:41:57.551Z,72.35
2022-09-23T08:44:47.758Z,72.08
2022-09-23T08:47:24.805Z,70.39
2022-09-23T08:50:11.751Z,69.99
2022-09-23T08:52:52.045Z,69.09
2022-09-23T08:55:20.137Z,69.07
2022-09-23T08:58:26.035Z,66.34
2022-09-23T09:00:59.867Z,67.00
2022-09-23T09:03:35.439Z,67.61
2022-09-23T09:06:03.280Z,66.82
2022-09-23T09:08:36.966Z,66.03
2022-09-23T09:11:06.203Z,65.40
2022-09-23T09:13:49.049Z,64.76
2022-09-23T09:16:55.441Z,64.50
2022-09-23T09:19:53.068Z,64.82
2022-09-23T09:22:31.217Z,64.82
2022-09-23T09:25:03.572Z,64.04
2022-09-23T09:27:30.913Z,63.91
2022-09-23T09:30:01.386Z,63.01
2022-09-23T09:32:48.631Z,63.75
2022-09-23T09:35:42.299Z,62.00
2022-09-23T09:38:09.521Z,62.98
2022-09-23T09:40:47.083Z,64.09
2022-09-23T09:43:23.367Z,63.57
2022-09-23T09:46:10.172Z,62.54
2022-09-23T09:48:50.343Z,61.97
2022-09-23T09:51:22.508Z,61.70
2022-09-23T09:53:53.682Z,62.13
2022-09-23T09:56:36.141Z,62.07
2022-09-23T09:59:11.744Z,62.10
2022-09-23T10:01:39.158Z,60.97
2022-09-23T10:04:23.797Z,60.96
2022-09-23T10:07:25.191Z,59.12
2022-09-23T10:09:52.282Z,58.85
2022-09-23T10:12:22.639Z,59.73
2022-09-23T10:14:51.978Z,59.92
2022-09-23T10:17:39.165Z,59.40
2022-09-23T10:20:14.728Z,59.19
2022-09-23T10:22:43.338Z,59.50
2022-09-23T10:25:19.373Z,60.37
2022-09-23T10:27:47.039Z,60.15
2022-09-23T10:30:25.912Z,60.78
2022-09-23T10:32:56.588Z,60.19
2022-09-23T10:35:24.955Z,60.96
2022-09-23T10:37:59.922Z,60.72
2022-09-23T10:40:51.800Z,61.15
2022-09-23T10:44:04.250Z,60.83
2022-09-23T10:46:42.198Z,60.20
2022-09-23T10:49:18.427Z,61.16
2022-09-23T10:52:04.048Z,60.48
2022-09-23T10:54:45.405Z,60.42
2022-09-23T10:57:45.876Z,60.47
2022-09-23T11:00:27.951Z,60.35
2022-09-23T11:03:01.179Z,61.00
2022-09-23T11:05:49.897Z,62.72
2022-09-23T11:08:54.361Z,63.35
2022-09-23T11:11:49.275Z,63.46
2022-09-23T11:14:41.184Z,63.42
2022-09-23T11:17:35.280Z,62.86
2022-09-23T11:20:36.372Z,62.20
2022-09-23T11:23:31.798Z,62.34
2022-09-23T11:26:40.861Z,62.29
2022-09-23T11:29:10.805Z,62.88
2022-09-23T11:31:59.706Z,62.81
2022-09-23T11:34:26.948Z,61.97
2022-09-23T11:36:59.725Z,61.25
2022-09-23T11:39:49.688Z,60.38
2022-09-23T11:42:25.120Z,60.33
2022-09-23T11:45:00.248Z,59.14
2022-09-23T11:47:39.938Z,60.47
2022-09-23T11:50:50.169Z,60.49
2022-09-23T11:54:07.418Z,60.64
2022-09-23T11:56:45.401Z,60.51
2022-09-23T11:59:37.275Z,59.80
2022-09-23T12:02:20.114Z,60.46
2022-09-23T12:05:02.917Z,60.91
2022-09-23T12:07:54.770Z,60.94
2022-09-23T12:10:22.666Z,61.06
2022-09-23T12:13:05.286Z,61.13
2022-09-23T12:15:50.778Z,61.02
2022-09-23T12:18:36.006Z,61.45
2022-09-23T12:21:39.130Z,61.23
2022-09-23T12:24:21.496Z,60.50
2022-09-23T12:26:56.274Z,58.97
2022-09-23T12:29:26.899Z,59.17
2022-09-23T12:31:54.143Z,59.12
2022-09-23T12:34:49.142Z,59.91
2022-09-23T12:37:38.391Z,59.25
2022-09-23T12:40:09.891Z,59.11
2022-09-23T12:42:46.528Z,59.57
2022-09-23T12:45:39.329Z,60.17
2022-09-23T12:48:18.036Z,60.28
2022-09-23T12:50:53.232Z,59.73
2022-09-23T12:54:04.699Z,59.21
2022-09-23T12:56:39.838Z,59.92
2022-09-23T12:59:16.041Z,59.88
2022-09-23T13:01:44.511Z,59.79
2022-09-23T13:05:12.702Z,60.13
2022-09-23T13:07:46.509Z,61.16
2022-09-23T13:10:25.475Z,61.06
2022-09-23T13:12:54.602Z,61.51
2022-09-23T13:15:33.225Z,61.32
2022-09-23T13:18:19.233Z,60.97
2022-09-23T13:20:51.195Z,61.17
2022-09-23T13:23:27.352Z,61.23
2022-09-23T13:25:57.916Z,61.54
2022-09-23T13:28:27.916Z,62.42
2022-09-23T13:30:55.760Z,62.79
2022-09-23T13:33:34.536Z,63.57
2022-09-23T13:36:06.805Z,63.31
2022-09-23T13:38:34.192Z,62.99
2022-09-23T13:41:11.118Z,62.91
2022-09-23T13:43:43.741Z,63.34
2022-09-23T13:46:26.738Z,63.89
2022-09-23T13:48:57.188Z,64.71
2022-09-23T13:51:33.057Z,64.55
2022-09-23T13:54:05.305Z,64.90
2022-09-23T13:56:33.903Z,64.94
2022-09-23T13:59:29.627Z,63.87
2022-09-23T14:02:28.554Z,64.88
2022-09-23T14:04:59.086Z,64.38
2022-09-23T14:07:26.996Z,64.22
2022-09-23T14:09:58.077Z,64.03
2022-09-23T14:12:25.453Z,64.05
2022-09-23T14:14:53.133Z,64.46
2022-09-23T14:17:25.847Z,64.65
2022-09-23T14:19:53.267Z,64.89
2022-09-23T14:22:28.590Z,65.22
2022-09-23T14:24:57.467Z,65.13
2022-09-23T14:27:31.294Z,65.38
2022-09-23T14:30:00.343Z,65.57
2022-09-23T14:32:29.702Z,65.77
2022-09-23T14:34:59.711Z,66.38
2022-09-23T14:37:56.603Z,66.80
2022-09-23T14:40:34.657Z,66.80
2022-09-23T14:43:06.453Z,66.97
2022-09-23T14:45:39.676Z,67.02
2022-09-23T14:48:17.642Z,66.33
2022-09-23T14:50:57.294Z,67.06
2022-09-23T14:53:36.486Z,67.46
2022-09-23T14:56:06.652Z,67.74
2022-09-23T14:58:57.234Z,68.29
2022-09-23T15:01:26.336Z,68.40
2022-09-23T15:03:55.872Z,69.13
2022-09-23T15:06:24.157Z,69.17
2022-09-23T15:08:56.291Z,69.41
2022-09-23T15:11:23.538Z,69.22
2022-09-23T15:13:53.122Z,69.64
2022-09-23T15:16:27.761Z,69.83
2022-09-23T15:18:57.774Z,70.57
2022-09-23T15:21:30.231Z,70.70
2022-09-23T15:23:58.702Z,69.88
2022-09-23T15:26:47.246Z,70.76
2022-09-23T15:29:14.382Z,71.30
2022-09-23T15:31:41.929Z,71.20
2022-09-23T15:34:11.010Z,71.44
2022-09-23T15:36:38.702Z,71.81
2022-09-23T15:39:08.712Z,70.94
2022-09-23T15:41:35.968Z,70.94
2022-09-23T15:44:14.348Z,71.26
2022-09-23T15:46:52.288Z,71.62
2022-09-23T15:49:33.701Z,71.75
2022-09-23T15:52:02.269Z,71.70
2022-09-23T15:54:31.084Z,71.91
2022-09-23T15:56:58.568Z,71.78
2022-09-23T15:59:25.679Z,72.57
2022-09-23T16:01:54.481Z,72.36
2022-09-23T16:04:22.084Z,72.55
2022-09-23T16:06:49.479Z,72.72
2022-09-23T16:09:16.913Z,73.02
2022-09-23T16:11:47.275Z,73.68
2022-09-23T16:14:16.926Z,74.10
2022-09-23T16:16:47.326Z,74.53
2022-09-23T16:19:15.921Z,75.12
2022-09-23T16:21:44.774Z,75.43
2022-09-23T16:24:15.988Z,76.21
2022-09-23T16:26:44.181Z,76.12
2022-09-23T16:29:14.059Z,76.62
2022-09-23T16:31:41.604Z,76.65
2022-09-23T16:34:09.474Z,77.27
2022-09-23T16:36:41.989Z,76.16
2022-09-23T16:39:12.621Z,76.21
2022-09-23T16:41:41.326Z,76.24
2022-09-23T16:44:10.735Z,77.43
2022-09-23T16:46:38.429Z,77.56
2022-09-23T16:49:05.760Z,77.47
2022-09-23T16:51:38.847Z,78.12
2022-09-23T16:54:11.566Z,77.01
2022-09-23T16:56:44.301Z,76.90
2022-09-23T16:59:13.463Z,75.96
2022-09-23T17:01:59.564Z,75.75
2022-09-23T17:04:30.696Z,75.88
2022-09-23T17:06:59.468Z,76.70
2022-09-23T17:09:28.847Z,76.55
2022-09-23T17:12:12.175Z,76.91
2022-09-23T17:14:39.299Z,78.11
2022-09-23T17:17:06.740Z,77.78
2022-09-23T17:19:34.948Z,77.50
2022-09-23T17:22:02.194Z,77.53
2022-09-23T17:24:29.580Z,77.28
2022-09-23T17:26:56.770Z,77.49
2022-09-23T17:29:26.964Z,78.12
2022-09-23T17:31:54.432Z,78.72
2022-09-23T17:34:22.094Z,79.02
2022-09-23T17:36:49.844Z,79.60
2022-09-23T17:39:17.744Z,79.57
2022-09-23T17:41:45.641Z,79.65
2022-09-23T17:44:13.141Z,79.73
2022-09-23T17:46:40.621Z,80.01
2022-09-23T17:49:08.677Z,80.83
2022-09-23T17:51:36.380Z,80.97
2022-09-23T17:54:04.099Z,80.92
2022-09-23T17:56:31.661Z,80.37
2022-09-23T17:59:02.546Z,80.47
2022-09-23T18:01:30.208Z,79.84
2022-09-23T18:04:02.496Z,80.45
2022-09-23T18:06:32.547Z,80.57
2022-09-23T18:09:04.178Z,81.26
2022-09-23T18:11:35.392Z,80.75
2022-09-23T18:14:06.349Z,80.46
2022-09-23T18:16:40.049Z,81.30
2022-09-23T18:19:10.945Z,81.69
2022-09-23T18:21:40.546Z,80.59
2022-09-23T18:27:00.101Z,81.33
2022-09-23T18:29:28.199Z,81.43
2022-09-23T18:31:55.473Z,81.95
2022-09-23T18:34:22.723Z,82.50
2022-09-23T18:36:50.508Z,82.70
2022-09-23T18:39:18.034Z,82.47
2022-09-23T18:41:45.504Z,82.03
2022-09-23T18:44:12.871Z,82.53
2022-09-23T18:46:40.251Z,82.61
2022-09-23T18:49:26.256Z,82.68
2022-09-23T18:51:58.448Z,83.02
2022-09-23T18:54:27.910Z,83.82
2022-09-23T18:56:55.821Z,83.23
2022-09-23T18:59:25.274Z,82.99
2022-09-23T19:01:55.556Z,83.71
2022-09-23T19:04:24.647Z,82.96
2022-09-23T19:06:54.020Z,82.50
2022-09-23T19:09:21.334Z,83.45
2022-09-23T19:11:52.219Z,83.32
2022-09-23T19:14:20.405Z,83.37
2022-09-23T19:16:49.286Z,83.71
2022-09-23T19:19:17.119Z,83.14
2022-09-23T19:21:44.353Z,83.21
2022-09-23T19:24:14.588Z,82.88
2022-09-23T19:26:42.486Z,83.68
2022-09-23T19:29:14.648Z,83.76
2022-09-23T19:31:42.238Z,83.75
2022-09-23T19:34:18.380Z,83.64
2022-09-23T19:36:47.450Z,83.74
2022-09-23T19:39:21.035Z,84.33
2022-09-23T19:41:49.574Z,83.43
2022-09-23T19:44:17.184Z,84.13
2022-09-23T19:46:45.906Z,84.23
2022-09-23T19:49:13.814Z,84.07
2022-09-23T19:51:41.254Z,83.83
2022-09-23T19:54:09.275Z,83.24
2022-09-23T19:56:36.849Z,82.97
2022-09-23T19:59:06.834Z,83.44
2022-09-23T20:01:34.444Z,83.87
2022-09-23T20:04:02.393Z,83.80
2022-09-23T20:06:31.895Z,82.95
2022-09-23T20:09:00.876Z,83.11
2022-09-23T20:11:28.929Z,82.45
2022-09-23T20:14:02.193Z,84.14
2022-09-23T20:16:32.620Z,83.92
2022-09-23T20:19:01.006Z,84.09
2022-09-23T20:21:29.572Z,83.55
2022-09-23T20:24:15.503Z,83.09
2022-09-23T20:27:01.415Z,83.46
2022-09-23T20:29:28.895Z,83.51
2022-09-23T20:31:57.059Z,83.82
2022-09-23T20:34:24.157Z,83.74
2022-09-23T20:36:51.223Z,83.32
2022-09-23T20:39:18.336Z,82.83
2022-09-23T20:41:45.365Z,82.64
2022-09-23T20:44:12.803Z,82.64
2022-09-23T20:46:46.951Z,82.33
2022-09-23T20:49:18.613Z,81.77
2022-09-23T20:51:47.839Z,82.34
2022-09-23T20:54:16.485Z,82.57
2022-09-23T20:56:43.647Z,82.90
2022-09-23T20:59:14.851Z,82.55
2022-09-23T21:01:42.166Z,82.84
2022-09-23T21:04:09.851Z,82.66
2022-09-23T21:06:37.725Z,82.64
2022-09-23T21:09:06.291Z,83.49
2022-09-23T21:11:33.966Z,83.75
2022-09-23T21:14:02.225Z,84.95
2022-09-23T21:16:29.894Z,85.13
2022-09-23T21:18:58.006Z,85.31
2022-09-23T21:21:25.515Z,84.67
2022-09-23T21:23:52.614Z,85.35
2022-09-23T21:26:23.522Z,85.41
2022-09-23T21:28:59.006Z,85.39
2022-09-23T21:31:31.352Z,86.11
2022-09-23T21:33:59.670Z,86.63
2022-09-23T21:36:32.790Z,87.93
2022-09-23T21:39:01.798Z,88.26
2022-09-23T21:41:29.237Z,88.89
2022-09-23T21:43:57.799Z,89.08
2022-09-23T21:46:26.682Z,90.02
2022-09-23T21:48:55.194Z,89.70
2022-09-23T21:51:27.477Z,91.20
2022-09-23T21:53:56.875Z,92.04
2022-09-23T21:56:28.280Z,92.00
2022-09-23T21:58:57.128Z,91.83
2022-09-23T22:01:27.037Z,92.48
2022-09-23T22:03:59.457Z,92.54
2022-09-23T22:06:28.397Z,93.82
2022-09-23T22:09:00.845Z,93.89
2022-09-23T22:11:49.360Z,94.49
2022-09-23T22:14:18.498Z,94.74
2022-09-23T22:16:46.368Z,95.90
2022-09-23T22:19:15.115Z,96.54
2022-09-23T22:21:44.050Z,96.31
2022-09-23T22:24:12.607Z,96.12
2022-09-23T22:26:42.327Z,95.40
2022-09-23T22:29:33.311Z,95.62
2022-09-23T22:32:20.773Z,96.21
2022-09-23T22:34:50.495Z,95.38
2022-09-23T22:37:26.557Z,95.65
2022-09-23T22:39:54.538Z,95.02
2022-09-23T22:42:22.520Z,95.70
2022-09-23T22:44:50.456Z,96.87
2022-09-23T22:47:18.497Z,96.04
2022-09-23T22:49:49.065Z,96.30
2022-09-23T22:52:21.060Z,96.91
2022-09-23T22:54:48.367Z,96.51
2022-09-23T22:57:15.471Z,96.85
2022-09-23T22:59:48.194Z,97.63
2022-09-23T23:02:18.110Z,97.25
2022-09-23T23:04:47.587Z,96.94
2022-09-23T23:07:16.661Z,96.75
2022-09-23T23:09:43.715Z,97.77
2022-09-23T23:12:10.839Z,97.21
2022-09-23T23:14:38.281Z,97.40
2022-09-23T23:17:08.614Z,97.83
2022-09-23T23:19:37.014Z,98.40
2022-09-23T23:22:07.153Z,98.04
2022-09-23T23:24:34.326Z,97.85
2022-09-23T23:27:01.385Z,98.44
2022-09-23T23:29:28.464Z,99.06
2022-09-23T23:31:55.607Z,99.65
2022-09-23T23:34:23.165Z,100.00
2022-09-23T23:36:54.702Z,99.95
2022-09-23T23:39:24.193Z,99.63
2022-09-23T23:41:56.231Z,99.87
2022-09-23T23:44:25.373Z,100.00
2022-09-23T23:46:53.683Z,100.00
2022-09-23T23:49:21.630Z,100.00
2022-09-23T23:51:49.119Z,100.00
2022-09-23T23:54:16.353Z,100.00
2022-09-23T23:56:43.564Z,100.00
2022-09-23T23:59:11.357Z,100.00
